Home   Weather   Netherlands   Apeldoorn   Past weeks
Flag for Netherlands

Past Weather in Apeldoorn, Netherlands — Yesterday and Last 2 Weeks

Currently: 63 °F. Mostly cloudy. (Weather station: Deelen, Netherlands). See more current weather

Past Weather in Apeldoorn — Graph

°F

Apeldoorn Temperature Yesterday

Maximum temperature yesterday: 68 °F (at 2:25 pm)
Minimum temperature yesterday: 43 °F (at 3:25 am)
Average temperature yesterday: 54 °F

High & Low Weather Summary for the Past Weeks

 TemperatureHumidityPressure
High79 °F (Sep 9, 1:55 pm)100% (Sep 10, 4:25 am)30.42 "Hg (Sep 10, 4:25 am)
Low39 °F (Sep 21, 4:25 am)46% (Sep 21, 2:25 pm)29.80 "Hg (Sep 9, 8:55 am)
Average60 °F85%30.04 "Hg
* Reported Sep 8 7:25 pm — Sep 23 7:25 pm, Apeldoorn. Weather by CustomWeather, © 2021

Note: Actual official high and low records may vary slightly from our data, if they occured in-between our weather recording intervals... More about our weather records

Apeldoorn Weather History for the Previous 24 Hours

Scroll right to see more
 ConditionsComfort  
Time TempWeatherWind HumidityBarometerVisibility
7:25 pm
Thu, Sep 23
63 °FMostly cloudy.8 mph77%30.01 "HgN/A
6:55 pm63 °FOvercast.9 mph77%30.01 "HgN/A
6:25 pm64 °FMostly cloudy.9 mph73%30.01 "HgN/A
5:25 pm66 °FBroken clouds.9 mph73%30.01 "HgN/A
4:55 pm64 °FMostly cloudy.9 mph78%30.01 "HgN/A
4:25 pm64 °FPartly sunny.10 mph78%30.01 "HgN/A
3:55 pm64 °FMore clouds than sun.10 mph73%30.01 "HgN/A
3:25 pm64 °FOvercast.12 mph73%30.01 "HgN/A
2:55 pm64 °FOvercast.14 mph73%30.01 "HgN/A
2:25 pm66 °FBroken clouds.17 mph68%30.01 "HgN/A
1:55 pm66 °FMostly cloudy.13 mph68%30.04 "HgN/A
1:25 pm64 °FMostly cloudy.10 mph73%30.04 "HgN/A
12:55 pm64 °FOvercast.9 mph73%30.04 "HgN/A
12:25 pm63 °FCloudy.12 mph83%30.04 "HgN/A
11:55 am63 °FMostly cloudy.17 mph77%30.04 "HgN/A
11:25 am61 °FCloudy.14 mph83%30.04 "HgN/A
10:55 am61 °FFog.12 mph83%30.07 "Hg6 mi
10:25 am59 °FFog.13 mph88%30.04 "Hg4 mi
9:55 am57 °FFog.12 mph88%30.07 "Hg3 mi
9:25 am55 °FFog.7 mph88%30.07 "Hg3 mi
8:55 am54 °FFog.9 mph94%30.07 "Hg4 mi
8:25 am52 °FFog.9 mph94%30.07 "Hg4 mi
7:55 am50 °FFog.7 mph94%30.09 "Hg4 mi
7:25 am50 °FFog.7 mph94%30.09 "Hg4 mi
6:55 am50 °FFog.6 mph94%30.09 "Hg4 mi
6:25 am48 °FFog.6 mph94%30.12 "Hg4 mi
5:55 am48 °FFog.7 mph94%30.09 "Hg5 mi
5:25 am50 °FFog.9 mph94%30.12 "Hg6 mi
4:55 am52 °FPassing clouds.10 mph88%30.12 "HgN/A
4:25 am50 °FFog.8 mph88%30.12 "Hg6 mi
3:55 am50 °FFog.7 mph88%30.15 "Hg6 mi
3:25 am52 °FCool.3 mph88%30.15 "HgN/A
2:55 am52 °FCool.5 mph82%30.18 "HgN/A
2:25 am50 °FCool.5 mph94%30.18 "HgN/A
1:55 am50 °FCool.3 mph88%30.18 "HgN/A
1:25 am52 °FFog.5 mph88%30.21 "Hg3 mi
12:55 am50 °FCool.3 mph88%30.21 "HgN/A
12:25 am54 °FCool.6 mph82%30.21 "HgN/A
11:55 pm
Wed, Sep 22
52 °FPassing clouds.6 mph88%30.21 "HgN/A
11:25 pm52 °FPassing clouds.3 mph88%30.24 "HgN/A
10:55 pm52 °FPassing clouds.5 mph88%30.24 "HgN/A
10:25 pm52 °FCool.2 mph88%30.24 "HgN/A
9:55 pm52 °FCool.2 mph88%30.24 "HgN/A
9:25 pm52 °FPassing clouds.1 mph94%30.27 "HgN/A
8:55 pm54 °FCool.3 mph88%30.27 "HgN/A
8:25 pm54 °FCool.3 mph88%30.27 "HgN/A
Weather by CustomWeather, © 2021

See weather overview